createdAt,value
2022-10-24T00:03:26.652Z,5.07
2022-10-24T00:08:15.193Z,4.93
2022-10-24T00:13:04.246Z,4.20
2022-10-24T00:17:47.822Z,4.47
2022-10-24T00:22:35.476Z,6.40
2022-10-24T00:28:13.332Z,5.63
2022-10-24T00:33:35.661Z,7.63
2022-10-24T00:39:05.125Z,8.23
2022-10-24T00:43:48.638Z,7.77
2022-10-24T00:48:38.559Z,8.13
2022-10-24T00:53:25.340Z,8.97
2022-10-24T00:58:13.740Z,9.03
2022-10-24T01:03:04.957Z,10.77
2022-10-24T01:08:04.746Z,11.00
2022-10-24T01:13:08.489Z,11.53
2022-10-24T01:18:12.328Z,13.13
2022-10-24T01:23:21.804Z,12.00
2022-10-24T01:28:22.436Z,10.80
2022-10-24T01:33:24.540Z,10.47
2022-10-24T01:38:17.506Z,10.60
2022-10-24T01:43:15.953Z,8.40
2022-10-24T01:48:09.085Z,7.47
2022-10-24T01:52:53.615Z,5.63
2022-10-24T01:57:39.812Z,5.60
2022-10-24T02:02:32.184Z,4.77
2022-10-24T02:07:18.838Z,4.63
2022-10-24T02:12:02.875Z,3.00
2022-10-24T02:16:54.308Z,3.40
2022-10-24T02:21:45.028Z,2.73
2022-10-24T02:26:44.182Z,3.00
2022-10-24T02:31:34.348Z,2.60
2022-10-24T02:36:33.472Z,2.60
2022-10-24T02:41:27.973Z,2.37
2022-10-24T02:46:14.603Z,2.57
2022-10-24T02:50:58.110Z,2.63
2022-10-24T02:55:47.849Z,2.83
2022-10-24T03:00:34.677Z,3.30
2022-10-24T03:05:37.322Z,2.97
2022-10-24T03:10:28.956Z,2.90
2022-10-24T03:15:15.018Z,2.13
2022-10-24T03:20:04.362Z,2.40
2022-10-24T03:24:55.381Z,2.13
2022-10-24T03:29:39.271Z,2.60
2022-10-24T03:34:28.722Z,2.50
2022-10-24T03:39:15.137Z,2.00
2022-10-24T03:44:02.455Z,2.07
2022-10-24T03:48:50.305Z,2.10
2022-10-24T03:53:39.868Z,2.00
2022-10-24T03:58:26.269Z,2.17
2022-10-24T04:03:20.446Z,2.57
2022-10-24T04:08:04.213Z,1.90
2022-10-24T04:12:50.816Z,2.37
2022-10-24T04:17:39.037Z,1.97
2022-10-24T04:22:33.107Z,2.13
2022-10-24T04:27:16.645Z,2.07
2022-10-24T04:32:03.253Z,2.00
2022-10-24T04:36:50.944Z,2.07
2022-10-24T04:41:39.725Z,2.03
2022-10-24T04:46:26.420Z,2.10
2022-10-24T04:51:21.651Z,2.13
2022-10-24T04:56:18.233Z,2.13
2022-10-24T05:01:13.199Z,1.90
2022-10-24T05:05:56.742Z,1.80
2022-10-24T05:10:45.167Z,1.83
2022-10-24T05:15:31.989Z,2.40
2022-10-24T05:20:20.822Z,2.40
2022-10-24T05:25:08.448Z,2.40
2022-10-24T05:29:56.063Z,2.07
2022-10-24T05:34:43.392Z,2.33
2022-10-24T05:39:31.504Z,2.20
2022-10-24T05:44:19.703Z,2.20
2022-10-24T05:49:26.341Z,2.00
2022-10-24T05:55:08.837Z,2.13
2022-10-24T06:00:22.815Z,2.50
2022-10-24T06:05:26.970Z,2.10
2022-10-24T06:10:59.116Z,2.20
2022-10-24T06:16:17.220Z,2.50
2022-10-24T06:21:40.367Z,2.13
2022-10-24T06:26:48.734Z,2.37
2022-10-24T06:32:09.335Z,2.23
2022-10-24T06:37:25.036Z,2.33
2022-10-24T06:43:00.576Z,2.13
2022-10-24T06:47:54.259Z,2.50
2022-10-24T07:03:30.762Z,2.30
2022-10-24T07:08:33.819Z,2.20
2022-10-24T07:14:00.095Z,2.10
2022-10-24T07:19:33.991Z,2.87
2022-10-24T07:24:23.275Z,1.90
2022-10-24T07:35:20.445Z,3.00
2022-10-24T07:40:39.165Z,3.80
2022-10-24T07:45:52.210Z,2.67
2022-10-24T07:51:31.118Z,2.90
2022-10-24T07:57:09.205Z,2.87
2022-10-24T08:02:10.210Z,3.30
2022-10-24T08:07:18.554Z,2.67
2022-10-24T08:12:37.939Z,2.83
2022-10-24T08:17:38.685Z,2.83
2022-10-24T08:23:24.655Z,2.90
2022-10-24T08:28:21.592Z,2.20
2022-10-24T08:33:28.616Z,2.13
2022-10-24T08:38:28.308Z,2.90
2022-10-24T08:43:20.634Z,2.90
2022-10-24T08:48:23.008Z,2.20
2022-10-24T08:53:38.714Z,2.80
2022-10-24T09:04:03.611Z,2.70
2022-10-24T09:09:26.113Z,2.50
2022-10-24T09:14:14.523Z,2.67
2022-10-24T09:19:12.879Z,3.20
2022-10-24T09:24:22.982Z,3.00
2022-10-24T09:29:11.231Z,2.23
2022-10-24T09:34:13.096Z,4.77
2022-10-24T09:39:36.242Z,4.67
2022-10-24T09:44:53.993Z,4.40
2022-10-24T09:55:34.824Z,3.13
2022-10-24T10:01:13.431Z,3.50
2022-10-24T10:06:43.018Z,5.10
2022-10-24T10:12:22.420Z,3.20
2022-10-24T10:17:39.868Z,2.60
2022-10-24T10:22:49.262Z,3.27
2022-10-24T10:28:10.373Z,2.47
2022-10-24T10:33:29.771Z,2.90
2022-10-24T10:38:59.554Z,2.50
2022-10-24T10:44:26.539Z,2.63
2022-10-24T10:49:54.549Z,2.47
2022-10-24T10:55:48.103Z,2.47
2022-10-24T11:02:15.809Z,2.30
2022-10-24T11:13:31.367Z,2.07
2022-10-24T11:18:59.566Z,1.93
2022-10-24T11:23:53.595Z,1.50
2022-10-24T11:29:25.938Z,1.70
2022-10-24T11:34:47.460Z,1.37
2022-10-24T11:46:30.205Z,0.80
2022-10-24T11:52:06.263Z,1.17
2022-10-24T11:57:30.566Z,0.77
2022-10-24T12:03:35.143Z,0.70
2022-10-24T12:08:57.337Z,0.50
2022-10-24T12:14:18.639Z,0.43
2022-10-24T12:19:49.356Z,0.50
2022-10-24T12:31:00.485Z,0.50
2022-10-24T12:36:41.107Z,0.40
2022-10-24T12:42:33.222Z,0.67
2022-10-24T12:48:41.053Z,0.57
2022-10-24T12:54:42.551Z,0.60
2022-10-24T13:09:57.928Z,0.40
2022-10-24T13:15:38.694Z,0.53
2022-10-24T13:21:10.352Z,0.43
2022-10-24T13:26:19.075Z,0.50
2022-10-24T13:32:09.315Z,0.30
2022-10-24T13:37:30.509Z,0.40
2022-10-24T13:43:06.822Z,0.30
2022-10-24T13:53:56.776Z,0.40
2022-10-24T13:59:00.817Z,0.30
2022-10-24T14:03:49.249Z,0.57
2022-10-24T14:09:02.413Z,0.47
2022-10-24T14:14:03.993Z,0.43
2022-10-24T14:19:27.149Z,0.20
2022-10-24T14:24:23.573Z,0.30
2022-10-24T14:29:28.539Z,0.40
2022-10-24T14:34:25.048Z,0.40
2022-10-24T14:39:31.532Z,0.30
2022-10-24T14:44:26.744Z,0.50
2022-10-24T14:49:33.363Z,0.80
2022-10-24T14:54:27.176Z,0.60
2022-10-24T14:59:30.872Z,0.50
2022-10-24T15:04:38.176Z,0.27
2022-10-24T15:09:25.025Z,0.37
2022-10-24T15:15:13.727Z,0.30
2022-10-24T15:31:34.776Z,0.40
2022-10-24T15:37:27.581Z,0.43
2022-10-24T15:42:43.310Z,0.50
2022-10-24T15:47:39.092Z,0.50
2022-10-24T15:53:10.758Z,0.63
2022-10-24T15:57:57.129Z,1.00
2022-10-24T16:02:48.588Z,0.70
2022-10-24T16:07:48.977Z,1.00
2022-10-24T16:12:37.298Z,0.80
2022-10-24T16:17:24.701Z,1.30
2022-10-24T16:22:11.451Z,0.70
2022-10-24T16:27:01.189Z,0.80
2022-10-24T16:31:50.895Z,0.80
2022-10-24T16:36:36.170Z,0.90
2022-10-24T16:41:27.722Z,0.90
2022-10-24T16:46:16.093Z,1.40
2022-10-24T16:51:04.192Z,1.40
2022-10-24T16:55:50.113Z,1.53
2022-10-24T17:00:37.840Z,1.80
2022-10-24T17:05:29.853Z,1.60
2022-10-24T17:10:18.427Z,2.30
2022-10-24T17:15:21.123Z,1.87
2022-10-24T17:20:35.348Z,1.87
2022-10-24T17:25:28.890Z,2.20
2022-10-24T17:30:17.391Z,2.00
2022-10-24T17:35:05.606Z,1.90
2022-10-24T17:40:05.437Z,2.13
2022-10-24T17:45:05.985Z,2.23
2022-10-24T17:56:08.859Z,2.23
2022-10-24T18:06:50.838Z,2.87
2022-10-24T18:24:54.752Z,2.97
2022-10-24T18:40:38.972Z,2.83
2022-10-24T18:45:28.125Z,2.83
2022-10-24T18:50:15.189Z,2.80
2022-10-24T18:55:06.254Z,2.77
2022-10-24T18:59:52.193Z,3.00
2022-10-24T19:04:41.458Z,3.27
2022-10-24T19:09:28.573Z,3.00
2022-10-24T19:22:18.406Z,3.80
2022-10-24T19:26:14.180Z,4.07
2022-10-24T19:32:04.522Z,2.97
2022-10-24T19:37:07.548Z,3.57
2022-10-24T19:42:00.646Z,3.43
2022-10-24T19:46:44.062Z,3.00
2022-10-24T20:05:05.398Z,2.87
2022-10-24T20:10:00.896Z,2.80
2022-10-24T20:14:44.706Z,3.20
2022-10-24T20:20:35.748Z,2.90
2022-10-24T20:32:06.102Z,2.13
2022-10-24T20:36:52.854Z,2.13
2022-10-24T20:42:12.534Z,2.37
2022-10-24T20:48:03.022Z,2.40
2022-10-24T20:53:46.878Z,2.70
2022-10-24T20:59:21.065Z,2.40
2022-10-24T21:05:25.429Z,2.13
2022-10-24T21:17:27.992Z,2.23
2022-10-24T21:23:48.677Z,2.30
2022-10-24T21:29:32.302Z,2.93
2022-10-24T21:34:43.919Z,2.20
2022-10-24T21:39:31.899Z,2.13
2022-10-24T21:44:23.441Z,2.03
2022-10-24T21:49:25.218Z,2.20
2022-10-24T21:54:18.135Z,2.33
2022-10-24T22:03:51.376Z,2.20
2022-10-24T22:08:40.772Z,2.30
2022-10-24T22:13:24.127Z,2.40
2022-10-24T22:18:16.493Z,2.30
2022-10-24T22:23:05.972Z,2.23
2022-10-24T22:27:51.406Z,1.80
2022-10-24T22:32:41.452Z,1.97
2022-10-24T22:37:30.319Z,2.13
2022-10-24T22:42:19.345Z,1.80
2022-10-24T22:53:56.812Z,1.80
2022-10-24T22:58:51.504Z,2.27
2022-10-24T23:04:34.630Z,2.30
2022-10-24T23:10:11.234Z,1.80
2022-10-24T23:15:06.509Z,1.70
2022-10-24T23:19:50.278Z,1.80
2022-10-24T23:31:15.493Z,2.00
2022-10-24T23:36:05.922Z,1.90
2022-10-24T23:40:55.094Z,2.00
2022-10-24T23:46:00.924Z,1.80
2022-10-24T23:51:01.324Z,1.60
2022-10-24T23:57:39.072Z,1.53
